createdAt,value
2022-07-29T00:01:42.615Z,1.42
2022-07-29T00:04:09.582Z,1.33
2022-07-29T00:06:39.267Z,1.21
2022-07-29T00:09:06.291Z,1.34
2022-07-29T00:11:33.155Z,1.17
2022-07-29T00:13:59.988Z,1.25
2022-07-29T00:16:27.303Z,1.23
2022-07-29T00:18:54.199Z,1.25
2022-07-29T00:21:21.139Z,1.08
2022-07-29T00:23:49.422Z,1.12
2022-07-29T00:26:16.541Z,1.18
2022-07-29T00:28:43.472Z,1.43
2022-07-29T00:31:10.674Z,1.38
2022-07-29T00:33:37.600Z,1.42
2022-07-29T00:36:05.263Z,1.67
2022-07-29T00:38:33.207Z,1.78
2022-07-29T00:41:01.710Z,1.83
2022-07-29T00:43:28.596Z,1.65
2022-07-29T00:45:55.594Z,1.58
2022-07-29T00:48:22.515Z,1.54
2022-07-29T00:50:50.904Z,1.43
2022-07-29T00:53:20.233Z,1.38
2022-07-29T00:55:48.971Z,1.43
2022-07-29T00:58:17.540Z,1.43
2022-07-29T01:00:46.701Z,1.27
2022-07-29T01:03:13.636Z,1.20
2022-07-29T01:05:50.682Z,1.46
2022-07-29T01:08:19.667Z,1.24
2022-07-29T01:10:48.734Z,1.36
2022-07-29T01:13:17.696Z,1.40
2022-07-29T01:15:48.818Z,1.04
2022-07-29T01:18:22.408Z,1.03
2022-07-29T01:21:17.608Z,1.07
2022-07-29T01:24:00.711Z,1.01
2022-07-29T01:26:35.979Z,1.14
2022-07-29T01:29:08.354Z,1.26
2022-07-29T01:31:50.268Z,1.17
2022-07-29T01:34:31.988Z,1.02
2022-07-29T01:37:06.025Z,1.15
2022-07-29T01:39:37.338Z,1.41
2022-07-29T01:42:13.561Z,1.50
2022-07-29T01:44:49.675Z,1.43
2022-07-29T01:47:21.674Z,1.36
2022-07-29T01:49:52.469Z,1.40
2022-07-29T01:52:24.580Z,1.49
2022-07-29T01:54:56.594Z,1.59
2022-07-29T01:57:29.293Z,1.44
2022-07-29T01:59:59.520Z,1.27
2022-07-29T02:02:31.275Z,1.25
2022-07-29T02:04:59.907Z,1.32
2022-07-29T02:07:30.186Z,1.23
2022-07-29T02:10:00.552Z,1.23
2022-07-29T02:12:30.068Z,1.11
2022-07-29T02:15:02.805Z,1.42
2022-07-29T02:17:34.180Z,1.44
2022-07-29T02:20:07.855Z,1.33
2022-07-29T02:22:38.238Z,1.41
2022-07-29T02:25:07.672Z,1.54
2022-07-29T02:27:42.929Z,1.41
2022-07-29T02:30:13.543Z,1.85
2022-07-29T02:32:42.468Z,1.81
2022-07-29T02:35:10.610Z,2.17
2022-07-29T02:37:38.087Z,2.44
2022-07-29T02:40:07.253Z,2.20
2022-07-29T02:42:37.326Z,2.05
2022-07-29T02:45:05.456Z,2.23
2022-07-29T02:47:41.926Z,2.47
2022-07-29T02:50:18.888Z,2.68
2022-07-29T02:52:53.246Z,2.68
2022-07-29T02:55:30.084Z,2.75
2022-07-29T02:58:02.174Z,2.83
2022-07-29T03:00:32.332Z,3.07
2022-07-29T03:03:08.460Z,3.02
2022-07-29T03:05:36.095Z,2.70
2022-07-29T03:08:05.211Z,2.70
2022-07-29T03:10:34.362Z,2.43
2022-07-29T03:13:01.883Z,2.61
2022-07-29T03:15:29.459Z,2.96
2022-07-29T03:17:56.694Z,3.44
2022-07-29T03:20:25.834Z,3.89
2022-07-29T03:22:52.779Z,3.63
2022-07-29T03:25:20.954Z,3.91
2022-07-29T03:27:48.915Z,3.45
2022-07-29T03:30:21.819Z,4.01
2022-07-29T03:32:51.864Z,4.42
2022-07-29T03:35:20.521Z,4.81
2022-07-29T03:37:49.221Z,4.65
2022-07-29T03:40:22.067Z,4.78
2022-07-29T03:42:52.369Z,4.83
2022-07-29T03:45:20.666Z,4.81
2022-07-29T03:47:57.069Z,4.86
2022-07-29T03:50:28.993Z,4.55
2022-07-29T03:52:58.532Z,4.19
2022-07-29T03:55:29.339Z,4.63
2022-07-29T03:57:58.587Z,4.97
2022-07-29T04:00:26.493Z,4.57
2022-07-29T04:02:58.211Z,4.28
2022-07-29T04:05:26.509Z,3.87
2022-07-29T04:07:56.072Z,3.08
2022-07-29T04:10:31.763Z,2.57
2022-07-29T04:12:59.982Z,2.27
2022-07-29T04:15:31.556Z,1.71
2022-07-29T04:18:02.976Z,1.48
2022-07-29T04:20:30.262Z,1.45
2022-07-29T04:22:59.629Z,1.45
2022-07-29T04:25:27.878Z,1.52
2022-07-29T04:27:56.330Z,1.54
2022-07-29T04:30:24.869Z,1.43
2022-07-29T04:32:53.090Z,1.52
2022-07-29T04:35:20.119Z,1.42
2022-07-29T04:37:47.741Z,1.55
2022-07-29T04:40:15.674Z,1.79
2022-07-29T04:42:47.872Z,1.71
2022-07-29T04:45:22.303Z,1.83
2022-07-29T04:47:50.027Z,1.85
2022-07-29T04:50:17.010Z,1.65
2022-07-29T04:52:44.216Z,1.73
2022-07-29T04:55:11.587Z,1.60
2022-07-29T04:57:41.086Z,1.60
2022-07-29T05:00:10.809Z,1.28
2022-07-29T05:02:39.298Z,1.27
2022-07-29T05:05:06.657Z,1.10
2022-07-29T05:07:35.749Z,1.20
2022-07-29T05:10:02.606Z,0.92
2022-07-29T05:12:32.888Z,0.86
2022-07-29T05:15:02.629Z,0.92
2022-07-29T05:17:34.717Z,0.97
2022-07-29T05:20:02.804Z,1.08
2022-07-29T05:22:29.767Z,1.54
2022-07-29T05:24:56.589Z,1.34
2022-07-29T05:27:27.642Z,1.35
2022-07-29T05:30:00.528Z,1.21
2022-07-29T05:32:28.254Z,1.12
2022-07-29T05:34:56.465Z,1.04
2022-07-29T05:37:29.135Z,0.95
2022-07-29T05:39:57.208Z,0.95
2022-07-29T05:42:26.820Z,0.88
2022-07-29T05:44:54.047Z,0.89
2022-07-29T05:47:22.456Z,0.92
2022-07-29T05:49:49.413Z,0.96
2022-07-29T05:52:20.337Z,0.71
2022-07-29T05:54:49.667Z,0.52
2022-07-29T05:57:17.080Z,0.77
2022-07-29T05:59:43.967Z,0.74
2022-07-29T06:02:10.866Z,1.06
2022-07-29T06:04:37.973Z,0.98
2022-07-29T06:07:05.468Z,0.85
2022-07-29T06:09:36.386Z,0.86
2022-07-29T06:12:05.722Z,0.89
2022-07-29T06:14:33.343Z,0.92
2022-07-29T06:17:03.409Z,1.28
2022-07-29T06:19:32.434Z,1.19
2022-07-29T06:21:59.397Z,0.98
2022-07-29T06:24:26.322Z,0.81
2022-07-29T06:26:57.104Z,0.87
2022-07-29T06:29:29.684Z,0.83
2022-07-29T06:32:00.568Z,0.81
2022-07-29T06:34:27.726Z,0.75
2022-07-29T06:36:55.836Z,0.80
2022-07-29T06:39:23.682Z,0.85
2022-07-29T06:41:55.775Z,1.07
2022-07-29T06:44:25.025Z,1.20
2022-07-29T06:46:55.450Z,0.93
2022-07-29T06:49:25.214Z,0.82
2022-07-29T06:51:56.236Z,5.14
2022-07-29T06:54:24.916Z,6.15
2022-07-29T06:56:54.421Z,6.73
2022-07-29T06:59:28.326Z,7.23
2022-07-29T07:02:01.544Z,6.81
2022-07-29T07:04:29.556Z,5.57
2022-07-29T07:06:57.415Z,4.75
2022-07-29T07:09:24.267Z,4.20
2022-07-29T07:11:52.270Z,4.65
2022-07-29T07:14:21.497Z,6.70
2022-07-29T07:16:52.721Z,7.31
2022-07-29T07:19:23.163Z,6.60
2022-07-29T07:21:54.620Z,4.90
2022-07-29T07:24:22.742Z,3.92
2022-07-29T07:26:49.892Z,2.73
2022-07-29T07:29:19.566Z,2.04
2022-07-29T07:31:46.786Z,1.70
2022-07-29T07:34:15.218Z,1.46
2022-07-29T07:36:45.805Z,1.12
2022-07-29T07:39:13.944Z,1.17
2022-07-29T07:41:41.319Z,0.98
2022-07-29T07:44:09.957Z,0.92
2022-07-29T07:46:39.813Z,1.10
2022-07-29T07:49:07.116Z,1.22
2022-07-29T07:51:34.368Z,1.17
2022-07-29T07:54:03.568Z,1.04
2022-07-29T07:56:35.174Z,1.11
2022-07-29T07:59:02.488Z,1.14
2022-07-29T08:01:47.785Z,1.32
2022-07-29T08:04:23.345Z,1.20
2022-07-29T08:06:54.876Z,1.49
2022-07-29T08:09:30.974Z,1.78
2022-07-29T08:11:58.788Z,1.60
2022-07-29T08:14:27.769Z,1.82
2022-07-29T08:16:55.039Z,2.10
2022-07-29T08:19:22.071Z,2.06
2022-07-29T08:21:51.638Z,1.76
2022-07-29T08:24:19.936Z,2.02
2022-07-29T08:26:51.299Z,1.63
2022-07-29T08:29:20.122Z,1.90
2022-07-29T08:31:47.162Z,1.71
2022-07-29T08:34:16.462Z,1.66
2022-07-29T08:36:43.493Z,1.69
2022-07-29T08:39:10.546Z,1.35
2022-07-29T08:41:37.975Z,1.42
2022-07-29T08:44:10.676Z,1.83
2022-07-29T08:46:39.466Z,1.55
2022-07-29T08:49:06.850Z,1.46
2022-07-29T08:51:35.770Z,1.44
2022-07-29T08:54:20.186Z,1.15
2022-07-29T08:56:51.081Z,1.01
2022-07-29T08:59:21.126Z,0.89
2022-07-29T09:01:55.207Z,0.90
2022-07-29T09:04:27.913Z,1.11
2022-07-29T09:06:58.627Z,0.93
2022-07-29T09:09:25.934Z,0.96
2022-07-29T09:11:56.173Z,0.86
2022-07-29T09:14:25.319Z,0.83
2022-07-29T09:16:55.190Z,0.91
2022-07-29T09:19:24.553Z,0.85
2022-07-29T09:21:53.601Z,0.82
2022-07-29T09:24:21.250Z,0.92
2022-07-29T09:26:49.599Z,0.86
2022-07-29T09:29:20.402Z,0.83
2022-07-29T09:31:51.528Z,1.17
2022-07-29T09:34:24.384Z,0.95
2022-07-29T09:36:53.797Z,0.87
2022-07-29T09:39:33.415Z,1.19
2022-07-29T09:42:02.092Z,1.50
2022-07-29T09:44:42.993Z,1.71
2022-07-29T09:47:11.407Z,2.02
2022-07-29T09:49:57.493Z,2.05
2022-07-29T09:52:25.513Z,2.16
2022-07-29T09:54:54.632Z,2.18
2022-07-29T09:57:30.604Z,2.23
2022-07-29T09:59:59.865Z,2.28
2022-07-29T10:02:34.674Z,2.32
2022-07-29T10:05:21.495Z,2.39
2022-07-29T10:07:53.736Z,2.44
2022-07-29T10:10:25.024Z,2.61
2022-07-29T10:13:08.898Z,2.29
2022-07-29T10:15:39.802Z,2.11
2022-07-29T10:18:12.458Z,1.93
2022-07-29T10:20:40.670Z,2.05
2022-07-29T10:23:08.885Z,1.91
2022-07-29T10:25:45.932Z,2.08
2022-07-29T10:28:16.198Z,2.43
2022-07-29T10:30:46.727Z,2.15
2022-07-29T10:33:33.841Z,2.07
2022-07-29T10:36:20.800Z,2.01
2022-07-29T10:38:56.542Z,2.38
2022-07-29T10:41:58.209Z,1.96
2022-07-29T10:44:27.997Z,1.75
2022-07-29T10:46:58.159Z,2.04
2022-07-29T10:49:30.297Z,2.27
2022-07-29T10:52:03.557Z,2.39
2022-07-29T10:54:48.611Z,2.54
2022-07-29T10:57:25.791Z,2.53
2022-07-29T11:00:33.615Z,2.66
2022-07-29T11:03:10.884Z,2.30
2022-07-29T11:06:10.749Z,2.19
2022-07-29T11:08:41.430Z,2.09
2022-07-29T11:11:43.803Z,2.14
2022-07-29T11:14:16.304Z,2.28
2022-07-29T11:17:09.715Z,2.24
2022-07-29T11:19:45.690Z,2.11
2022-07-29T11:22:36.708Z,1.99
2022-07-29T11:25:17.018Z,1.89
2022-07-29T11:27:49.170Z,1.97
2022-07-29T11:30:16.468Z,1.88
2022-07-29T11:32:48.694Z,2.03
2022-07-29T11:35:18.845Z,1.92
2022-07-29T11:38:31.925Z,1.72
2022-07-29T11:41:23.591Z,1.91
2022-07-29T11:43:57.700Z,1.84
2022-07-29T11:46:47.335Z,1.80
2022-07-29T11:49:21.976Z,1.83
2022-07-29T11:51:59.208Z,1.69
2022-07-29T11:54:58.307Z,1.58
2022-07-29T11:57:36.272Z,1.36
2022-07-29T12:00:10.040Z,1.34
2022-07-29T12:02:41.450Z,1.11
2022-07-29T12:05:12.119Z,0.96
2022-07-29T12:07:41.266Z,1.03
2022-07-29T12:10:19.736Z,1.24
2022-07-29T12:12:58.837Z,1.09
2022-07-29T12:15:45.573Z,1.11
2022-07-29T12:18:18.829Z,1.07
2022-07-29T12:20:49.289Z,1.03
2022-07-29T12:23:16.895Z,1.12
2022-07-29T12:25:50.169Z,0.97
2022-07-29T12:28:18.570Z,0.99
2022-07-29T12:30:54.264Z,0.96
2022-07-29T12:33:23.006Z,0.87
2022-07-29T12:36:06.135Z,0.82
2022-07-29T12:38:34.824Z,0.70
2022-07-29T12:41:05.211Z,0.72
2022-07-29T12:43:32.751Z,0.77
2022-07-29T12:46:13.433Z,0.70
2022-07-29T12:48:44.538Z,0.58
2022-07-29T12:51:12.915Z,0.59
2022-07-29T12:53:40.329Z,0.77
2022-07-29T12:56:40.604Z,0.62
2022-07-29T12:59:13.325Z,0.57
2022-07-29T13:01:40.719Z,0.56
2022-07-29T13:04:08.154Z,0.51
2022-07-29T13:06:37.990Z,0.42
2022-07-29T13:09:09.342Z,0.36
2022-07-29T13:11:45.257Z,0.33
2022-07-29T13:14:15.907Z,0.32
2022-07-29T13:17:05.065Z,0.31
2022-07-29T13:19:39.206Z,0.35
2022-07-29T13:22:06.422Z,0.33
2022-07-29T13:24:33.348Z,0.36
2022-07-29T13:27:05.731Z,0.33
2022-07-29T13:29:33.082Z,0.41
2022-07-29T13:32:02.522Z,0.42
2022-07-29T13:34:31.684Z,0.43
2022-07-29T13:36:59.686Z,0.40
2022-07-29T13:39:28.173Z,0.40
2022-07-29T13:41:56.295Z,0.40
2022-07-29T13:44:27.166Z,0.40
2022-07-29T13:46:54.037Z,0.49
2022-07-29T13:49:23.736Z,0.52
2022-07-29T13:51:51.452Z,0.59
2022-07-29T13:54:19.113Z,0.56
2022-07-29T13:56:47.447Z,0.57
2022-07-29T13:59:16.848Z,0.63
2022-07-29T14:01:45.714Z,0.57
2022-07-29T14:04:16.190Z,0.49
2022-07-29T14:06:43.518Z,0.58
2022-07-29T14:09:16.697Z,0.61
2022-07-29T14:11:44.400Z,0.71
2022-07-29T14:14:13.336Z,0.69
2022-07-29T14:16:44.553Z,0.72
2022-07-29T14:19:27.237Z,0.69
2022-07-29T14:21:54.307Z,0.60
2022-07-29T14:24:26.398Z,0.65
2022-07-29T14:26:53.360Z,0.78
2022-07-29T14:29:21.076Z,0.82
2022-07-29T14:31:48.149Z,0.76
2022-07-29T14:34:15.358Z,0.74
2022-07-29T14:36:46.467Z,0.77
2022-07-29T14:39:13.348Z,0.78
2022-07-29T14:41:44.735Z,0.79
2022-07-29T14:44:11.557Z,1.09
2022-07-29T14:46:40.148Z,0.97
2022-07-29T14:49:07.357Z,0.97
2022-07-29T14:51:38.542Z,0.84
2022-07-29T14:54:10.939Z,0.86
2022-07-29T14:56:46.848Z,0.83
2022-07-29T14:59:16.082Z,0.87
2022-07-29T15:01:43.952Z,0.83
2022-07-29T15:04:11.668Z,0.82
2022-07-29T15:06:43.813Z,0.81
2022-07-29T15:09:14.741Z,0.78
2022-07-29T15:11:43.901Z,0.84
2022-07-29T15:14:13.317Z,0.90
2022-07-29T15:16:43.522Z,0.96
2022-07-29T15:19:13.209Z,0.89
2022-07-29T15:21:47.938Z,0.89
2022-07-29T15:24:18.647Z,0.98
2022-07-29T15:26:47.756Z,0.94
2022-07-29T15:29:16.122Z,0.98
2022-07-29T15:31:43.478Z,1.04
2022-07-29T15:34:10.425Z,1.31
2022-07-29T15:36:54.273Z,1.24
2022-07-29T15:39:26.269Z,1.10
2022-07-29T15:41:58.188Z,1.06
2022-07-29T15:44:28.003Z,1.26
2022-07-29T15:46:55.840Z,1.41
2022-07-29T15:49:24.520Z,1.46
2022-07-29T15:51:51.494Z,1.33
2022-07-29T15:54:19.496Z,1.22
2022-07-29T15:56:47.713Z,1.37
2022-07-29T15:59:22.297Z,1.34
2022-07-29T16:01:50.110Z,1.18
2022-07-29T16:04:19.543Z,1.30
2022-07-29T16:06:47.949Z,1.12
2022-07-29T16:09:16.715Z,1.22
2022-07-29T16:11:45.286Z,1.24
2022-07-29T16:14:19.395Z,1.52
2022-07-29T16:16:46.728Z,1.77
2022-07-29T16:19:15.488Z,1.72
2022-07-29T16:21:42.756Z,1.62
2022-07-29T16:24:12.112Z,1.59
2022-07-29T16:26:41.349Z,1.69
2022-07-29T16:29:09.303Z,1.57
2022-07-29T16:31:38.218Z,1.69
2022-07-29T16:34:07.161Z,1.59
2022-07-29T16:36:35.273Z,1.70
2022-07-29T16:39:07.692Z,1.79
2022-07-29T16:41:35.004Z,1.82
2022-07-29T16:44:03.578Z,1.99
2022-07-29T16:46:30.837Z,1.95
2022-07-29T16:49:00.989Z,2.04
2022-07-29T16:51:31.791Z,1.88
2022-07-29T16:53:58.917Z,1.89
2022-07-29T16:56:27.167Z,1.76
2022-07-29T16:58:54.094Z,1.83
2022-07-29T17:01:22.775Z,1.70
2022-07-29T17:03:49.887Z,1.52
2022-07-29T17:06:19.949Z,1.22
2022-07-29T17:08:53.168Z,1.38
2022-07-29T17:11:20.816Z,1.58
2022-07-29T17:13:48.575Z,1.62
2022-07-29T17:16:17.888Z,1.43
2022-07-29T17:18:45.723Z,1.54
2022-07-29T17:21:14.110Z,1.76
2022-07-29T17:23:45.585Z,1.77
2022-07-29T17:26:28.234Z,1.63
2022-07-29T17:28:55.724Z,1.66
2022-07-29T17:31:28.891Z,1.80
2022-07-29T17:33:59.895Z,1.85
2022-07-29T17:36:28.295Z,2.17
2022-07-29T17:39:00.444Z,1.99
2022-07-29T17:41:29.366Z,1.88
2022-07-29T17:43:56.577Z,1.88
2022-07-29T17:46:27.067Z,1.92
2022-07-29T17:48:55.879Z,1.87
2022-07-29T17:51:23.435Z,1.91
2022-07-29T17:53:52.491Z,1.86
2022-07-29T17:56:21.344Z,2.15
2022-07-29T17:58:48.585Z,2.29
2022-07-29T18:01:15.867Z,2.08
2022-07-29T18:03:45.143Z,2.16
2022-07-29T18:06:12.288Z,1.83
2022-07-29T18:08:40.494Z,1.58
2022-07-29T18:11:08.457Z,1.44
2022-07-29T18:13:46.378Z,1.21
2022-07-29T18:16:13.720Z,1.28
2022-07-29T18:18:43.410Z,1.50
2022-07-29T18:21:13.099Z,1.95
2022-07-29T18:23:43.449Z,1.64
2022-07-29T18:26:12.175Z,1.66
2022-07-29T18:28:41.400Z,1.71
2022-07-29T18:31:14.149Z,1.82
2022-07-29T18:33:41.099Z,1.83
2022-07-29T18:36:11.634Z,1.98
2022-07-29T18:38:39.565Z,1.84
2022-07-29T18:41:08.212Z,1.95
2022-07-29T18:43:35.382Z,1.87
2022-07-29T18:46:04.931Z,1.67
2022-07-29T18:48:33.576Z,1.84
2022-07-29T18:51:01.631Z,2.17
2022-07-29T18:53:28.591Z,2.27
2022-07-29T18:56:00.169Z,1.99
2022-07-29T18:58:27.291Z,1.88
2022-07-29T19:00:54.316Z,1.75
2022-07-29T19:03:21.594Z,1.79
2022-07-29T19:05:50.668Z,1.90
2022-07-29T19:08:17.498Z,1.70
2022-07-29T19:10:45.044Z,1.54
2022-07-29T19:13:13.559Z,1.40
2022-07-29T19:15:40.577Z,1.27
2022-07-29T19:18:07.556Z,1.16
2022-07-29T19:20:36.732Z,1.22
2022-07-29T19:23:04.956Z,1.17
2022-07-29T19:25:35.608Z,1.05
2022-07-29T19:28:02.966Z,1.14
2022-07-29T19:30:29.877Z,1.31
2022-07-29T19:32:58.214Z,1.18
2022-07-29T19:35:25.328Z,1.33
2022-07-29T19:37:52.712Z,1.37
2022-07-29T19:40:21.769Z,1.40
2022-07-29T19:42:48.881Z,1.48
2022-07-29T19:45:17.421Z,1.55
2022-07-29T19:47:47.865Z,1.80
2022-07-29T19:50:18.287Z,1.70
2022-07-29T19:52:46.191Z,1.60
2022-07-29T19:55:13.837Z,1.47
2022-07-29T19:57:48.958Z,1.37
2022-07-29T20:00:16.778Z,1.35
2022-07-29T20:02:54.178Z,1.36
2022-07-29T20:05:21.075Z,1.59
2022-07-29T20:07:55.224Z,1.51
2022-07-29T20:10:22.359Z,1.69
2022-07-29T20:12:51.270Z,1.90
2022-07-29T20:15:21.706Z,1.72
2022-07-29T20:17:53.902Z,1.71
2022-07-29T20:20:24.057Z,1.69
2022-07-29T20:22:50.945Z,1.67
2022-07-29T20:25:18.615Z,1.74
2022-07-29T20:27:45.960Z,1.82
2022-07-29T20:30:14.375Z,1.91
2022-07-29T20:32:41.339Z,2.08
2022-07-29T20:35:09.422Z,2.20
2022-07-29T20:37:55.987Z,1.94
2022-07-29T20:40:25.485Z,1.65
2022-07-29T20:42:52.727Z,1.72
2022-07-29T20:45:25.828Z,2.12
2022-07-29T20:47:54.094Z,2.17
2022-07-29T20:50:24.056Z,2.38
2022-07-29T20:53:03.507Z,2.27
2022-07-29T20:55:30.465Z,2.27
2022-07-29T20:57:57.379Z,2.41
2022-07-29T21:00:26.104Z,2.50
2022-07-29T21:02:53.050Z,2.08
2022-07-29T21:05:20.391Z,1.97
2022-07-29T21:07:48.816Z,2.08
2022-07-29T21:10:16.827Z,2.44
2022-07-29T21:12:45.748Z,2.45
2022-07-29T21:15:12.949Z,2.39
2022-07-29T21:17:43.843Z,2.09
2022-07-29T21:20:13.116Z,1.81
2022-07-29T21:22:41.294Z,2.12
2022-07-29T21:25:09.160Z,2.14
2022-07-29T21:27:40.365Z,2.84
2022-07-29T21:30:08.567Z,3.08
2022-07-29T21:32:35.563Z,3.41
2022-07-29T21:35:19.168Z,3.33
2022-07-29T21:37:51.620Z,3.09
2022-07-29T21:40:18.945Z,2.60
2022-07-29T21:42:46.839Z,2.70
2022-07-29T21:45:13.734Z,2.52
2022-07-29T21:47:42.039Z,2.35
2022-07-29T21:50:10.425Z,1.87
2022-07-29T21:52:39.720Z,1.48
2022-07-29T21:55:07.764Z,1.70
2022-07-29T21:57:39.528Z,1.38
2022-07-29T22:00:11.339Z,1.17
2022-07-29T22:02:38.330Z,0.92
2022-07-29T22:05:05.714Z,1.06
2022-07-29T22:07:56.129Z,0.84
2022-07-29T22:10:21.511Z,0.76
2022-07-29T22:12:50.002Z,0.79
2022-07-29T22:15:17.036Z,0.80
2022-07-29T22:17:44.395Z,0.72
2022-07-29T22:20:13.253Z,0.80
2022-07-29T22:22:41.939Z,0.80
2022-07-29T22:25:10.950Z,1.19
2022-07-29T22:27:38.602Z,1.12
2022-07-29T22:30:08.729Z,1.11
2022-07-29T22:32:36.285Z,1.15
2022-07-29T22:35:04.380Z,1.37
2022-07-29T22:37:31.326Z,1.60
2022-07-29T22:39:59.777Z,1.10
2022-07-29T22:42:26.648Z,0.77
2022-07-29T22:44:53.500Z,0.56
2022-07-29T22:47:46.620Z,0.44
2022-07-29T22:50:08.359Z,0.33
2022-07-29T22:52:35.240Z,0.27
2022-07-29T22:55:03.861Z,0.28
2022-07-29T22:57:30.944Z,0.26
2022-07-29T22:59:57.736Z,0.28
2022-07-29T23:02:24.955Z,0.33
2022-07-29T23:04:51.715Z,0.32
2022-07-29T23:07:18.575Z,0.38
2022-07-29T23:09:45.383Z,0.31
2022-07-29T23:12:13.697Z,0.27
2022-07-29T23:14:40.519Z,0.34
2022-07-29T23:17:07.525Z,0.32
2022-07-29T23:19:34.512Z,0.36
2022-07-29T23:22:04.484Z,0.28
2022-07-29T23:24:31.597Z,0.26
2022-07-29T23:26:59.017Z,0.23
2022-07-29T23:29:27.746Z,0.22
2022-07-29T23:31:55.000Z,0.20
2022-07-29T23:34:21.883Z,0.20
2022-07-29T23:36:48.652Z,0.31
2022-07-29T23:39:15.811Z,0.26
2022-07-29T23:41:42.920Z,1.34
2022-07-29T23:44:09.722Z,0.85
2022-07-29T23:46:38.074Z,1.58
2022-07-29T23:49:06.154Z,1.51
2022-07-29T23:51:33.187Z,0.89
2022-07-29T23:54:00.282Z,0.62
2022-07-29T23:56:27.126Z,0.47
2022-07-29T23:58:55.153Z,0.39
